sensor_id;sensor_type;location;lat;lon;timestamp;P1;durP1;ratioP1;P2;durP2;ratioP2
14704;SDS011;7442;50.840;3.396;2023-11-19T00:00:15;1.40;;;0.90;;
14704;SDS011;7442;50.840;3.396;2023-11-19T00:02:43;1.42;;;0.95;;
14704;SDS011;7442;50.840;3.396;2023-11-19T00:05:11;1.22;;;0.65;;
14704;SDS011;7442;50.840;3.396;2023-11-19T00:07:40;3.52;;;1.20;;
14704;SDS011;7442;50.840;3.396;2023-11-19T00:10:11;8.25;;;1.30;;
14704;SDS011;7442;50.840;3.396;2023-11-19T00:12:43;1.50;;;0.80;;
14704;SDS011;7442;50.840;3.396;2023-11-19T00:15:13;3.30;;;1.10;;
14704;SDS011;7442;50.840;3.396;2023-11-19T00:17:42;2.10;;;0.85;;
14704;SDS011;7442;50.840;3.396;2023-11-19T00:20:14;3.42;;;1.02;;
14704;SDS011;7442;50.840;3.396;2023-11-19T00:22:44;2.50;;;1.35;;
14704;SDS011;7442;50.840;3.396;2023-11-19T00:25:22;3.33;;;1.30;;
14704;SDS011;7442;50.840;3.396;2023-11-19T00:27:46;3.25;;;1.25;;
14704;SDS011;7442;50.840;3.396;2023-11-19T00:30:15;2.72;;;1.20;;
14704;SDS011;7442;50.840;3.396;2023-11-19T00:32:43;2.02;;;1.05;;
14704;SDS011;7442;50.840;3.396;2023-11-19T00:35:11;1.60;;;0.80;;
14704;SDS011;7442;50.840;3.396;2023-11-19T00:37:43;1.42;;;0.80;;
14704;SDS011;7442;50.840;3.396;2023-11-19T00:40:13;2.05;;;0.90;;
14704;SDS011;7442;50.840;3.396;2023-11-19T00:42:43;1.47;;;0.90;;
14704;SDS011;7442;50.840;3.396;2023-11-19T00:45:11;1.10;;;0.82;;
14704;SDS011;7442;50.840;3.396;2023-11-19T00:47:40;2.17;;;1.17;;
14704;SDS011;7442;50.840;3.396;2023-11-19T00:50:09;1.87;;;0.80;;
14704;SDS011;7442;50.840;3.396;2023-11-19T00:52:38;2.45;;;1.30;;
14704;SDS011;7442;50.840;3.396;2023-11-19T00:55:07;2.45;;;1.20;;
14704;SDS011;7442;50.840;3.396;2023-11-19T00:57:35;1.85;;;1.12;;
14704;SDS011;7442;50.840;3.396;2023-11-19T01:00:04;2.05;;;1.12;;
14704;SDS011;7442;50.840;3.396;2023-11-19T01:02:34;1.82;;;0.95;;
14704;SDS011;7442;50.840;3.396;2023-11-19T01:05:03;2.75;;;1.00;;
14704;SDS011;7442;50.840;3.396;2023-11-19T01:07:31;2.25;;;0.90;;
14704;SDS011;7442;50.840;3.396;2023-11-19T01:09:59;1.67;;;1.00;;
14704;SDS011;7442;50.840;3.396;2023-11-19T01:12:29;1.72;;;1.07;;
14704;SDS011;7442;50.840;3.396;2023-11-19T01:14:57;2.00;;;1.00;;
14704;SDS011;7442;50.840;3.396;2023-11-19T01:17:25;2.37;;;1.10;;
14704;SDS011;7442;50.840;3.396;2023-11-19T01:19:53;3.02;;;0.95;;
14704;SDS011;7442;50.840;3.396;2023-11-19T01:22:21;2.05;;;0.98;;
14704;SDS011;7442;50.840;3.396;2023-11-19T01:24:49;2.20;;;1.10;;
14704;SDS011;7442;50.840;3.396;2023-11-19T01:27:18;1.67;;;0.98;;
14704;SDS011;7442;50.840;3.396;2023-11-19T01:29:46;2.12;;;1.00;;
14704;SDS011;7442;50.840;3.396;2023-11-19T01:32:15;1.55;;;0.90;;
14704;SDS011;7442;50.840;3.396;2023-11-19T01:34:44;1.77;;;0.93;;
14704;SDS011;7442;50.840;3.396;2023-11-19T01:37:12;1.30;;;0.90;;
14704;SDS011;7442;50.840;3.396;2023-11-19T01:39:43;3.17;;;1.20;;
14704;SDS011;7442;50.840;3.396;2023-11-19T01:42:15;1.82;;;0.93;;
14704;SDS011;7442;50.840;3.396;2023-11-19T01:44:53;2.15;;;0.93;;
14704;SDS011;7442;50.840;3.396;2023-11-19T01:47:17;1.87;;;1.07;;
14704;SDS011;7442;50.840;3.396;2023-11-19T01:49:46;2.50;;;1.10;;
14704;SDS011;7442;50.840;3.396;2023-11-19T01:52:14;1.70;;;1.00;;
14704;SDS011;7442;50.840;3.396;2023-11-19T01:54:42;1.07;;;0.82;;
14704;SDS011;7442;50.840;3.396;2023-11-19T01:57:11;1.27;;;0.93;;
14704;SDS011;7442;50.840;3.396;2023-11-19T01:59:40;1.40;;;1.02;;
14704;SDS011;7442;50.840;3.396;2023-11-19T02:02:07;3.67;;;1.10;;
14704;SDS011;7442;50.840;3.396;2023-11-19T02:04:35;2.50;;;1.02;;
14704;SDS011;7442;50.840;3.396;2023-11-19T02:07:04;2.05;;;1.02;;
14704;SDS011;7442;50.840;3.396;2023-11-19T02:09:33;2.95;;;1.20;;
14704;SDS011;7442;50.840;3.396;2023-11-19T02:12:01;2.75;;;1.17;;
14704;SDS011;7442;50.840;3.396;2023-11-19T02:14:30;1.50;;;0.90;;
14704;SDS011;7442;50.840;3.396;2023-11-19T02:16:59;1.47;;;0.80;;
14704;SDS011;7442;50.840;3.396;2023-11-19T02:19:27;3.60;;;1.10;;
14704;SDS011;7442;50.840;3.396;2023-11-19T02:21:55;2.12;;;1.37;;
14704;SDS011;7442;50.840;3.396;2023-11-19T02:24:23;2.08;;;1.20;;
14704;SDS011;7442;50.840;3.396;2023-11-19T02:27:04;2.05;;;1.00;;
14704;SDS011;7442;50.840;3.396;2023-11-19T02:29:36;1.62;;;0.85;;
14704;SDS011;7442;50.840;3.396;2023-11-19T02:32:04;2.90;;;1.10;;
14704;SDS011;7442;50.840;3.396;2023-11-19T02:34:34;3.12;;;1.42;;
14704;SDS011;7442;50.840;3.396;2023-11-19T02:37:02;3.30;;;1.40;;
14704;SDS011;7442;50.840;3.396;2023-11-19T02:39:32;1.70;;;0.90;;
14704;SDS011;7442;50.840;3.396;2023-11-19T02:42:00;7.20;;;1.35;;
14704;SDS011;7442;50.840;3.396;2023-11-19T02:44:27;2.25;;;1.00;;
14704;SDS011;7442;50.840;3.396;2023-11-19T02:46:56;2.45;;;1.20;;
14704;SDS011;7442;50.840;3.396;2023-11-19T02:49:25;2.25;;;1.25;;
14704;SDS011;7442;50.840;3.396;2023-11-19T02:51:54;2.47;;;1.00;;
14704;SDS011;7442;50.840;3.396;2023-11-19T02:54:22;2.50;;;1.25;;
14704;SDS011;7442;50.840;3.396;2023-11-19T02:56:51;2.72;;;1.00;;
14704;SDS011;7442;50.840;3.396;2023-11-19T02:59:21;3.90;;;1.27;;
14704;SDS011;7442;50.840;3.396;2023-11-19T03:01:51;2.02;;;0.93;;
14704;SDS011;7442;50.840;3.396;2023-11-19T03:04:19;4.50;;;1.12;;
14704;SDS011;7442;50.840;3.396;2023-11-19T03:06:49;2.35;;;0.95;;
14704;SDS011;7442;50.840;3.396;2023-11-19T03:09:17;3.52;;;1.37;;
14704;SDS011;7442;50.840;3.396;2023-11-19T03:11:45;2.05;;;1.20;;
14704;SDS011;7442;50.840;3.396;2023-11-19T03:14:13;3.20;;;1.22;;
14704;SDS011;7442;50.840;3.396;2023-11-19T03:16:46;3.33;;;1.45;;
14704;SDS011;7442;50.840;3.396;2023-11-19T03:19:14;2.45;;;1.12;;
14704;SDS011;7442;50.840;3.396;2023-11-19T03:21:42;2.85;;;1.32;;
14704;SDS011;7442;50.840;3.396;2023-11-19T03:24:13;3.02;;;1.40;;
14704;SDS011;7442;50.840;3.396;2023-11-19T03:26:41;2.87;;;1.20;;
14704;SDS011;7442;50.840;3.396;2023-11-19T03:29:10;2.22;;;1.50;;
14704;SDS011;7442;50.840;3.396;2023-11-19T03:31:41;2.85;;;1.47;;
14704;SDS011;7442;50.840;3.396;2023-11-19T03:34:10;2.55;;;1.15;;
14704;SDS011;7442;50.840;3.396;2023-11-19T03:36:38;2.33;;;1.12;;
14704;SDS011;7442;50.840;3.396;2023-11-19T03:39:06;2.52;;;1.00;;
14704;SDS011;7442;50.840;3.396;2023-11-19T03:41:34;3.33;;;1.10;;
14704;SDS011;7442;50.840;3.396;2023-11-19T03:44:01;3.02;;;1.25;;
14704;SDS011;7442;50.840;3.396;2023-11-19T03:46:30;3.33;;;1.40;;
14704;SDS011;7442;50.840;3.396;2023-11-19T03:48:58;2.67;;;1.30;;
14704;SDS011;7442;50.840;3.396;2023-11-19T03:51:26;2.30;;;1.15;;
14704;SDS011;7442;50.840;3.396;2023-11-19T03:53:53;2.80;;;1.60;;
14704;SDS011;7442;50.840;3.396;2023-11-19T03:56:21;2.40;;;1.50;;
14704;SDS011;7442;50.840;3.396;2023-11-19T03:58:49;2.50;;;1.30;;
14704;SDS011;7442;50.840;3.396;2023-11-19T04:01:18;2.05;;;1.25;;
14704;SDS011;7442;50.840;3.396;2023-11-19T04:03:46;2.72;;;1.40;;
14704;SDS011;7442;50.840;3.396;2023-11-19T04:06:13;3.62;;;1.50;;
14704;SDS011;7442;50.840;3.396;2023-11-19T04:08:41;2.95;;;1.45;;
14704;SDS011;7442;50.840;3.396;2023-11-19T04:11:09;2.42;;;1.40;;
14704;SDS011;7442;50.840;3.396;2023-11-19T04:13:37;2.60;;;1.45;;
14704;SDS011;7442;50.840;3.396;2023-11-19T04:16:05;2.30;;;1.30;;
14704;SDS011;7442;50.840;3.396;2023-11-19T04:18:34;3.08;;;1.57;;
14704;SDS011;7442;50.840;3.396;2023-11-19T04:21:05;3.22;;;1.40;;
14704;SDS011;7442;50.840;3.396;2023-11-19T04:23:33;4.40;;;1.47;;
14704;SDS011;7442;50.840;3.396;2023-11-19T04:26:04;3.52;;;1.85;;
14704;SDS011;7442;50.840;3.396;2023-11-19T04:28:32;3.72;;;1.42;;
14704;SDS011;7442;50.840;3.396;2023-11-19T04:31:00;2.85;;;1.55;;
14704;SDS011;7442;50.840;3.396;2023-11-19T04:33:29;2.77;;;1.50;;
14704;SDS011;7442;50.840;3.396;2023-11-19T04:35:57;3.47;;;1.35;;
14704;SDS011;7442;50.840;3.396;2023-11-19T04:38:25;4.83;;;1.70;;
14704;SDS011;7442;50.840;3.396;2023-11-19T04:40:52;2.77;;;1.30;;
14704;SDS011;7442;50.840;3.396;2023-11-19T04:43:22;3.00;;;1.40;;
14704;SDS011;7442;50.840;3.396;2023-11-19T04:45:50;2.30;;;1.32;;
14704;SDS011;7442;50.840;3.396;2023-11-19T04:48:20;3.80;;;1.67;;
14704;SDS011;7442;50.840;3.396;2023-11-19T04:50:48;4.10;;;1.70;;
14704;SDS011;7442;50.840;3.396;2023-11-19T04:53:17;2.77;;;1.40;;
14704;SDS011;7442;50.840;3.396;2023-11-19T04:55:45;3.87;;;1.60;;
14704;SDS011;7442;50.840;3.396;2023-11-19T04:58:13;5.05;;;1.75;;
14704;SDS011;7442;50.840;3.396;2023-11-19T05:00:41;2.60;;;1.52;;
14704;SDS011;7442;50.840;3.396;2023-11-19T05:03:08;5.97;;;1.80;;
14704;SDS011;7442;50.840;3.396;2023-11-19T05:05:36;2.60;;;1.10;;
14704;SDS011;7442;50.840;3.396;2023-11-19T05:08:05;3.12;;;1.40;;
14704;SDS011;7442;50.840;3.396;2023-11-19T05:10:32;2.20;;;1.27;;
14704;SDS011;7442;50.840;3.396;2023-11-19T05:13:00;3.83;;;1.65;;
14704;SDS011;7442;50.840;3.396;2023-11-19T05:15:28;4.67;;;1.90;;
14704;SDS011;7442;50.840;3.396;2023-11-19T05:17:56;4.03;;;1.60;;
14704;SDS011;7442;50.840;3.396;2023-11-19T05:20:24;3.60;;;1.40;;
14704;SDS011;7442;50.840;3.396;2023-11-19T05:22:52;3.12;;;1.50;;
14704;SDS011;7442;50.840;3.396;2023-11-19T05:25:20;3.72;;;1.60;;
14704;SDS011;7442;50.840;3.396;2023-11-19T05:27:48;3.98;;;1.70;;
14704;SDS011;7442;50.840;3.396;2023-11-19T05:30:16;3.27;;;1.22;;
14704;SDS011;7442;50.840;3.396;2023-11-19T05:32:44;4.12;;;1.72;;
14704;SDS011;7442;50.840;3.396;2023-11-19T05:35:12;2.12;;;1.40;;
14704;SDS011;7442;50.840;3.396;2023-11-19T05:37:39;3.92;;;1.80;;
14704;SDS011;7442;50.840;3.396;2023-11-19T05:40:07;3.92;;;1.50;;
14704;SDS011;7442;50.840;3.396;2023-11-19T05:42:37;3.85;;;1.60;;
14704;SDS011;7442;50.840;3.396;2023-11-19T05:45:06;3.58;;;1.67;;
14704;SDS011;7442;50.840;3.396;2023-11-19T05:47:35;3.15;;;1.60;;
14704;SDS011;7442;50.840;3.396;2023-11-19T05:50:03;3.30;;;1.80;;
14704;SDS011;7442;50.840;3.396;2023-11-19T05:52:32;3.00;;;1.70;;
14704;SDS011;7442;50.840;3.396;2023-11-19T05:55:00;3.00;;;1.50;;
14704;SDS011;7442;50.840;3.396;2023-11-19T05:57:29;3.12;;;1.80;;
14704;SDS011;7442;50.840;3.396;2023-11-19T05:59:58;4.20;;;2.10;;
14704;SDS011;7442;50.840;3.396;2023-11-19T06:02:25;3.80;;;1.57;;
14704;SDS011;7442;50.840;3.396;2023-11-19T06:04:53;4.62;;;1.72;;
14704;SDS011;7442;50.840;3.396;2023-11-19T06:07:21;4.35;;;1.70;;
14704;SDS011;7442;50.840;3.396;2023-11-19T06:09:49;4.00;;;1.77;;
14704;SDS011;7442;50.840;3.396;2023-11-19T06:12:17;2.92;;;1.60;;
14704;SDS011;7442;50.840;3.396;2023-11-19T06:14:45;3.00;;;1.47;;
14704;SDS011;7442;50.840;3.396;2023-11-19T06:17:13;2.55;;;1.60;;
14704;SDS011;7442;50.840;3.396;2023-11-19T06:19:41;3.37;;;1.55;;
14704;SDS011;7442;50.840;3.396;2023-11-19T06:22:09;5.42;;;2.08;;
14704;SDS011;7442;50.840;3.396;2023-11-19T06:24:37;3.83;;;1.70;;
14704;SDS011;7442;50.840;3.396;2023-11-19T06:27:05;3.27;;;1.80;;
14704;SDS011;7442;50.840;3.396;2023-11-19T06:29:32;4.17;;;1.55;;
14704;SDS011;7442;50.840;3.396;2023-11-19T06:32:00;3.27;;;1.60;;
14704;SDS011;7442;50.840;3.396;2023-11-19T06:34:28;3.58;;;1.62;;
14704;SDS011;7442;50.840;3.396;2023-11-19T06:36:56;2.95;;;1.50;;
14704;SDS011;7442;50.840;3.396;2023-11-19T06:39:24;3.40;;;1.57;;
14704;SDS011;7442;50.840;3.396;2023-11-19T06:41:52;4.42;;;1.55;;
14704;SDS011;7442;50.840;3.396;2023-11-19T06:44:20;3.25;;;1.77;;
14704;SDS011;7442;50.840;3.396;2023-11-19T06:46:48;5.17;;;1.70;;
14704;SDS011;7442;50.840;3.396;2023-11-19T06:49:17;3.33;;;1.80;;
14704;SDS011;7442;50.840;3.396;2023-11-19T06:51:45;3.80;;;1.72;;
14704;SDS011;7442;50.840;3.396;2023-11-19T06:54:12;3.12;;;1.70;;
14704;SDS011;7442;50.840;3.396;2023-11-19T06:56:40;3.52;;;1.62;;
14704;SDS011;7442;50.840;3.396;2023-11-19T06:59:09;4.58;;;1.77;;
14704;SDS011;7442;50.840;3.396;2023-11-19T07:01:36;3.87;;;1.60;;
14704;SDS011;7442;50.840;3.396;2023-11-19T07:04:04;3.70;;;1.50;;
14704;SDS011;7442;50.840;3.396;2023-11-19T07:06:34;4.90;;;1.82;;
14704;SDS011;7442;50.840;3.396;2023-11-19T07:09:03;3.20;;;1.72;;
14704;SDS011;7442;50.840;3.396;2023-11-19T07:11:33;3.17;;;1.70;;
14704;SDS011;7442;50.840;3.396;2023-11-19T07:14:10;4.42;;;1.90;;
14704;SDS011;7442;50.840;3.396;2023-11-19T07:16:38;3.45;;;2.00;;
14704;SDS011;7442;50.840;3.396;2023-11-19T07:19:06;4.83;;;2.15;;
14704;SDS011;7442;50.840;3.396;2023-11-19T07:21:34;3.17;;;1.72;;
14704;SDS011;7442;50.840;3.396;2023-11-19T07:24:04;4.08;;;1.77;;
14704;SDS011;7442;50.840;3.396;2023-11-19T07:26:35;3.47;;;1.72;;
14704;SDS011;7442;50.840;3.396;2023-11-19T07:29:03;5.05;;;2.10;;
14704;SDS011;7442;50.840;3.396;2023-11-19T07:31:33;3.47;;;1.62;;
14704;SDS011;7442;50.840;3.396;2023-11-19T07:34:00;3.15;;;1.55;;
14704;SDS011;7442;50.840;3.396;2023-11-19T07:36:29;5.85;;;2.12;;
14704;SDS011;7442;50.840;3.396;2023-11-19T07:38:57;2.75;;;1.52;;
14704;SDS011;7442;50.840;3.396;2023-11-19T07:41:26;3.35;;;1.70;;
14704;SDS011;7442;50.840;3.396;2023-11-19T07:43:54;3.75;;;1.80;;
14704;SDS011;7442;50.840;3.396;2023-11-19T07:46:22;3.77;;;1.92;;
14704;SDS011;7442;50.840;3.396;2023-11-19T07:48:51;4.90;;;1.62;;
14704;SDS011;7442;50.840;3.396;2023-11-19T07:51:19;5.72;;;2.10;;
14704;SDS011;7442;50.840;3.396;2023-11-19T07:53:47;3.92;;;1.60;;
14704;SDS011;7442;50.840;3.396;2023-11-19T07:56:15;3.47;;;1.82;;
14704;SDS011;7442;50.840;3.396;2023-11-19T07:58:43;4.42;;;1.90;;
14704;SDS011;7442;50.840;3.396;2023-11-19T08:01:11;3.45;;;1.57;;
14704;SDS011;7442;50.840;3.396;2023-11-19T08:03:39;4.00;;;1.98;;
14704;SDS011;7442;50.840;3.396;2023-11-19T08:06:07;5.05;;;2.35;;
14704;SDS011;7442;50.840;3.396;2023-11-19T08:08:35;3.95;;;1.85;;
14704;SDS011;7442;50.840;3.396;2023-11-19T08:11:04;4.20;;;1.90;;
14704;SDS011;7442;50.840;3.396;2023-11-19T08:13:33;3.27;;;1.70;;
14704;SDS011;7442;50.840;3.396;2023-11-19T08:16:01;6.47;;;1.90;;
14704;SDS011;7442;50.840;3.396;2023-11-19T08:18:29;8.35;;;2.17;;
14704;SDS011;7442;50.840;3.396;2023-11-19T08:20:57;8.30;;;2.10;;
14704;SDS011;7442;50.840;3.396;2023-11-19T08:23:26;6.45;;;2.47;;
14704;SDS011;7442;50.840;3.396;2023-11-19T08:25:54;3.98;;;1.85;;
14704;SDS011;7442;50.840;3.396;2023-11-19T08:28:22;4.75;;;2.10;;
14704;SDS011;7442;50.840;3.396;2023-11-19T08:30:50;7.65;;;2.10;;
14704;SDS011;7442;50.840;3.396;2023-11-19T08:33:18;5.05;;;2.30;;
14704;SDS011;7442;50.840;3.396;2023-11-19T08:35:47;6.65;;;3.08;;
14704;SDS011;7442;50.840;3.396;2023-11-19T08:38:16;4.78;;;1.87;;
14704;SDS011;7442;50.840;3.396;2023-11-19T08:40:43;5.75;;;2.50;;
14704;SDS011;7442;50.840;3.396;2023-11-19T08:43:11;4.80;;;2.37;;
14704;SDS011;7442;50.840;3.396;2023-11-19T08:45:39;8.30;;;2.45;;
14704;SDS011;7442;50.840;3.396;2023-11-19T08:48:07;4.90;;;2.12;;
14704;SDS011;7442;50.840;3.396;2023-11-19T08:50:34;9.18;;;2.30;;
14704;SDS011;7442;50.840;3.396;2023-11-19T08:53:02;6.58;;;2.50;;
14704;SDS011;7442;50.840;3.396;2023-11-19T08:55:32;6.70;;;2.25;;
14704;SDS011;7442;50.840;3.396;2023-11-19T08:58:00;6.70;;;2.37;;
14704;SDS011;7442;50.840;3.396;2023-11-19T09:00:46;5.70;;;2.58;;
14704;SDS011;7442;50.840;3.396;2023-11-19T09:03:33;7.28;;;2.95;;
14704;SDS011;7442;50.840;3.396;2023-11-19T09:06:21;7.95;;;3.12;;
14704;SDS011;7442;50.840;3.396;2023-11-19T09:09:08;22.95;;;3.70;;
14704;SDS011;7442;50.840;3.396;2023-11-19T09:11:54;11.00;;;3.42;;
14704;SDS011;7442;50.840;3.396;2023-11-19T09:14:41;11.78;;;3.58;;
14704;SDS011;7442;50.840;3.396;2023-11-19T09:17:27;11.93;;;4.17;;
14704;SDS011;7442;50.840;3.396;2023-11-19T09:20:13;10.75;;;3.90;;
14704;SDS011;7442;50.840;3.396;2023-11-19T09:23:00;10.43;;;4.28;;
14704;SDS011;7442;50.840;3.396;2023-11-19T09:25:46;11.75;;;4.00;;
14704;SDS011;7442;50.840;3.396;2023-11-19T09:28:32;11.63;;;4.28;;
14704;SDS011;7442;50.840;3.396;2023-11-19T09:31:18;12.65;;;4.42;;
14704;SDS011;7442;50.840;3.396;2023-11-19T09:34:05;13.62;;;4.20;;
14704;SDS011;7442;50.840;3.396;2023-11-19T09:36:51;13.68;;;4.17;;
14704;SDS011;7442;50.840;3.396;2023-11-19T09:39:37;14.05;;;4.25;;
14704;SDS011;7442;50.840;3.396;2023-11-19T09:42:24;13.88;;;4.03;;
14704;SDS011;7442;50.840;3.396;2023-11-19T09:45:17;13.18;;;4.67;;
14704;SDS011;7442;50.840;3.396;2023-11-19T09:48:00;15.43;;;4.97;;
14704;SDS011;7442;50.840;3.396;2023-11-19T09:50:48;13.75;;;4.42;;
14704;SDS011;7442;50.840;3.396;2023-11-19T09:53:35;19.10;;;4.92;;
14704;SDS011;7442;50.840;3.396;2023-11-19T09:56:22;14.65;;;5.03;;
14704;SDS011;7442;50.840;3.396;2023-11-19T09:59:09;15.35;;;4.83;;
14704;SDS011;7442;50.840;3.396;2023-11-19T10:01:56;18.65;;;5.40;;
14704;SDS011;7442;50.840;3.396;2023-11-19T10:04:42;13.18;;;4.72;;
14704;SDS011;7442;50.840;3.396;2023-11-19T10:07:36;14.50;;;4.78;;
14704;SDS011;7442;50.840;3.396;2023-11-19T10:10:19;14.18;;;4.67;;
14704;SDS011;7442;50.840;3.396;2023-11-19T10:13:05;14.28;;;4.60;;
14704;SDS011;7442;50.840;3.396;2023-11-19T10:15:52;15.13;;;4.78;;
14704;SDS011;7442;50.840;3.396;2023-11-19T10:18:45;15.60;;;5.25;;
14704;SDS011;7442;50.840;3.396;2023-11-19T10:21:33;13.83;;;4.97;;
14704;SDS011;7442;50.840;3.396;2023-11-19T10:24:39;12.25;;;4.60;;
14704;SDS011;7442;50.840;3.396;2023-11-19T10:27:16;16.77;;;4.72;;
14704;SDS011;7442;50.840;3.396;2023-11-19T10:30:03;13.78;;;4.30;;
14704;SDS011;7442;50.840;3.396;2023-11-19T10:35:54;10.90;;;4.10;;
14704;SDS011;7442;50.840;3.396;2023-11-19T10:38:51;13.40;;;4.00;;
14704;SDS011;7442;50.840;3.396;2023-11-19T10:41:39;9.80;;;3.75;;
14704;SDS011;7442;50.840;3.396;2023-11-19T10:44:32;12.40;;;4.45;;
14704;SDS011;7442;50.840;3.396;2023-11-19T10:47:24;12.23;;;4.03;;
14704;SDS011;7442;50.840;3.396;2023-11-19T10:50:11;12.43;;;4.03;;
14704;SDS011;7442;50.840;3.396;2023-11-19T10:52:57;11.18;;;3.92;;
14704;SDS011;7442;50.840;3.396;2023-11-19T10:55:45;11.30;;;4.22;;
14704;SDS011;7442;50.840;3.396;2023-11-19T10:58:33;14.15;;;4.20;;
14704;SDS011;7442;50.840;3.396;2023-11-19T11:01:22;11.45;;;4.22;;
14704;SDS011;7442;50.840;3.396;2023-11-19T11:04:15;11.50;;;4.05;;
14704;SDS011;7442;50.840;3.396;2023-11-19T11:07:04;11.08;;;4.03;;
14704;SDS011;7442;50.840;3.396;2023-11-19T11:09:53;8.33;;;3.33;;
14704;SDS011;7442;50.840;3.396;2023-11-19T11:12:42;10.45;;;4.22;;
14704;SDS011;7442;50.840;3.396;2023-11-19T11:15:31;14.38;;;4.37;;
14704;SDS011;7442;50.840;3.396;2023-11-19T11:18:18;12.23;;;4.30;;
14704;SDS011;7442;50.840;3.396;2023-11-19T11:21:08;12.78;;;4.25;;
14704;SDS011;7442;50.840;3.396;2023-11-19T11:26:50;10.08;;;3.83;;
14704;SDS011;7442;50.840;3.396;2023-11-19T11:29:24;11.90;;;4.03;;
14704;SDS011;7442;50.840;3.396;2023-11-19T11:38:21;9.88;;;4.42;;
14704;SDS011;7442;50.840;3.396;2023-11-19T11:43:46;13.83;;;4.08;;
14704;SDS011;7442;50.840;3.396;2023-11-19T11:49:03;11.00;;;3.98;;
14704;SDS011;7442;50.840;3.396;2023-11-19T11:59:36;275.20;;;101.07;;
14704;SDS011;7442;50.840;3.396;2023-11-19T12:02:12;369.02;;;139.85;;
14704;SDS011;7442;50.840;3.396;2023-11-19T12:04:43;453.73;;;172.30;;
14704;SDS011;7442;50.840;3.396;2023-11-19T12:07:16;398.02;;;153.40;;
14704;SDS011;7442;50.840;3.396;2023-11-19T12:10:28;430.43;;;165.32;;
14704;SDS011;7442;50.840;3.396;2023-11-19T12:12:23;490.52;;;194.67;;
14704;SDS011;7442;50.840;3.396;2023-11-19T12:20:12;544.35;;;225.28;;
14704;SDS011;7442;50.840;3.396;2023-11-19T12:22:43;525.70;;;220.50;;
14704;SDS011;7442;50.840;3.396;2023-11-19T12:25:13;528.50;;;219.40;;
14704;SDS011;7442;50.840;3.396;2023-11-19T12:27:46;497.85;;;211.03;;
14704;SDS011;7442;50.840;3.396;2023-11-19T12:30:21;502.45;;;210.55;;
14704;SDS011;7442;50.840;3.396;2023-11-19T12:35:19;455.27;;;194.90;;
14704;SDS011;7442;50.840;3.396;2023-11-19T12:37:48;442.90;;;186.73;;
14704;SDS011;7442;50.840;3.396;2023-11-19T12:40:18;413.33;;;179.00;;
14704;SDS011;7442;50.840;3.396;2023-11-19T12:42:51;417.90;;;178.23;;
14704;SDS011;7442;50.840;3.396;2023-11-19T12:45:20;404.75;;;168.52;;
14704;SDS011;7442;50.840;3.396;2023-11-19T12:47:50;387.23;;;166.95;;
14704;SDS011;7442;50.840;3.396;2023-11-19T12:50:21;372.63;;;155.90;;
14704;SDS011;7442;50.840;3.396;2023-11-19T12:53:00;361.92;;;150.47;;
14704;SDS011;7442;50.840;3.396;2023-11-19T12:55:25;351.40;;;151.35;;
14704;SDS011;7442;50.840;3.396;2023-11-19T12:57:58;347.85;;;144.28;;
14704;SDS011;7442;50.840;3.396;2023-11-19T13:00:26;322.90;;;139.30;;
14704;SDS011;7442;50.840;3.396;2023-11-19T13:02:56;330.98;;;138.37;;
14704;SDS011;7442;50.840;3.396;2023-11-19T13:05:30;312.95;;;132.03;;
14704;SDS011;7442;50.840;3.396;2023-11-19T13:10:33;300.62;;;124.45;;
14704;SDS011;7442;50.840;3.396;2023-11-19T13:13:03;299.15;;;123.95;;
14704;SDS011;7442;50.840;3.396;2023-11-19T13:15:36;290.50;;;122.17;;
14704;SDS011;7442;50.840;3.396;2023-11-19T13:18:06;279.70;;;117.42;;
14704;SDS011;7442;50.840;3.396;2023-11-19T13:20:33;264.42;;;116.35;;
14704;SDS011;7442;50.840;3.396;2023-11-19T13:23:02;270.88;;;114.47;;
14704;SDS011;7442;50.840;3.396;2023-11-19T13:25:33;243.33;;;110.57;;
14704;SDS011;7442;50.840;3.396;2023-11-19T13:28:01;240.75;;;106.83;;
14704;SDS011;7442;50.840;3.396;2023-11-19T13:30:30;243.78;;;104.05;;
14704;SDS011;7442;50.840;3.396;2023-11-19T13:32:58;234.72;;;100.27;;
14704;SDS011;7442;50.840;3.396;2023-11-19T13:35:26;229.00;;;97.67;;
14704;SDS011;7442;50.840;3.396;2023-11-19T13:37:55;231.78;;;96.57;;
14704;SDS011;7442;50.840;3.396;2023-11-19T13:40:24;217.87;;;95.80;;
14704;SDS011;7442;50.840;3.396;2023-11-19T13:42:51;211.68;;;91.20;;
14704;SDS011;7442;50.840;3.396;2023-11-19T13:45:19;198.32;;;89.92;;
14704;SDS011;7442;50.840;3.396;2023-11-19T13:47:47;194.85;;;90.00;;
14704;SDS011;7442;50.840;3.396;2023-11-19T13:50:16;197.78;;;86.22;;
14704;SDS011;7442;50.840;3.396;2023-11-19T13:52:44;195.18;;;84.50;;
14704;SDS011;7442;50.840;3.396;2023-11-19T13:55:13;185.73;;;82.25;;
14704;SDS011;7442;50.840;3.396;2023-11-19T13:57:42;182.60;;;81.95;;
14704;SDS011;7442;50.840;3.396;2023-11-19T14:00:28;182.78;;;78.47;;
14704;SDS011;7442;50.840;3.396;2023-11-19T14:03:15;170.97;;;73.78;;
14704;SDS011;7442;50.840;3.396;2023-11-19T14:06:01;163.28;;;73.12;;
14704;SDS011;7442;50.840;3.396;2023-11-19T14:08:47;150.97;;;69.97;;
14704;SDS011;7442;50.840;3.396;2023-11-19T14:11:34;158.85;;;69.53;;
14704;SDS011;7442;50.840;3.396;2023-11-19T14:14:20;157.52;;;68.95;;
14704;SDS011;7442;50.840;3.396;2023-11-19T14:17:07;145.30;;;64.25;;
14704;SDS011;7442;50.840;3.396;2023-11-19T14:19:54;143.90;;;63.70;;
14704;SDS011;7442;50.840;3.396;2023-11-19T14:22:41;131.85;;;59.98;;
14704;SDS011;7442;50.840;3.396;2023-11-19T14:25:28;139.10;;;58.75;;
14704;SDS011;7442;50.840;3.396;2023-11-19T14:28:15;126.18;;;55.90;;
14704;SDS011;7442;50.840;3.396;2023-11-19T14:31:02;128.25;;;56.23;;
14704;SDS011;7442;50.840;3.396;2023-11-19T14:33:30;123.40;;;54.35;;
14704;SDS011;7442;50.840;3.396;2023-11-19T14:36:00;118.90;;;52.27;;
14704;SDS011;7442;50.840;3.396;2023-11-19T14:38:28;104.90;;;50.00;;
14704;SDS011;7442;50.840;3.396;2023-11-19T14:40:56;107.32;;;50.35;;
14704;SDS011;7442;50.840;3.396;2023-11-19T14:43:25;106.85;;;49.42;;
14704;SDS011;7442;50.840;3.396;2023-11-19T14:45:54;106.63;;;47.83;;
14704;SDS011;7442;50.840;3.396;2023-11-19T14:48:22;105.43;;;47.17;;
14704;SDS011;7442;50.840;3.396;2023-11-19T14:50:50;102.97;;;46.65;;
14704;SDS011;7442;50.840;3.396;2023-11-19T14:53:19;104.65;;;46.48;;
14704;SDS011;7442;50.840;3.396;2023-11-19T14:55:48;96.53;;;45.12;;
14704;SDS011;7442;50.840;3.396;2023-11-19T14:58:16;88.95;;;41.68;;
14704;SDS011;7442;50.840;3.396;2023-11-19T15:00:44;86.80;;;41.10;;
14704;SDS011;7442;50.840;3.396;2023-11-19T15:03:12;87.70;;;42.20;;
14704;SDS011;7442;50.840;3.396;2023-11-19T15:05:42;87.95;;;39.55;;
14704;SDS011;7442;50.840;3.396;2023-11-19T15:08:10;81.75;;;37.75;;
14704;SDS011;7442;50.840;3.396;2023-11-19T15:10:38;78.20;;;37.25;;
14704;SDS011;7442;50.840;3.396;2023-11-19T15:13:07;66.87;;;34.03;;
14704;SDS011;7442;50.840;3.396;2023-11-19T15:15:35;77.50;;;34.58;;
14704;SDS011;7442;50.840;3.396;2023-11-19T15:18:04;79.72;;;35.40;;
14704;SDS011;7442;50.840;3.396;2023-11-19T15:20:32;69.67;;;32.95;;
14704;SDS011;7442;50.840;3.396;2023-11-19T15:23:00;65.15;;;32.98;;
14704;SDS011;7442;50.840;3.396;2023-11-19T15:25:30;72.53;;;31.80;;
14704;SDS011;7442;50.840;3.396;2023-11-19T15:27:58;71.15;;;32.17;;
14704;SDS011;7442;50.840;3.396;2023-11-19T15:30:26;65.22;;;29.52;;
14704;SDS011;7442;50.840;3.396;2023-11-19T15:32:53;64.15;;;30.95;;
14704;SDS011;7442;50.840;3.396;2023-11-19T15:35:21;66.12;;;29.18;;
14704;SDS011;7442;50.840;3.396;2023-11-19T15:37:54;59.63;;;28.05;;
14704;SDS011;7442;50.840;3.396;2023-11-19T15:40:21;57.78;;;27.50;;
14704;SDS011;7442;50.840;3.396;2023-11-19T15:42:48;62.03;;;26.82;;
14704;SDS011;7442;50.840;3.396;2023-11-19T15:45:17;56.63;;;26.97;;
14704;SDS011;7442;50.840;3.396;2023-11-19T15:47:54;51.63;;;24.23;;
14704;SDS011;7442;50.840;3.396;2023-11-19T15:53:11;51.65;;;26.20;;
14704;SDS011;7442;50.840;3.396;2023-11-19T15:55:45;51.63;;;23.95;;